sensor_id;sensor_type;location;lat;lon;timestamp;pressure;altitude;pressure_sealevel;temperature;humidity
22605;BME280;11469;49.024;8.246;2023-04-16T00:00:02;100475.31;;;9.09;100.00
22605;BME280;11469;49.024;8.246;2023-04-16T00:02:29;100469.72;;;9.09;100.00
22605;BME280;11469;49.024;8.246;2023-04-16T00:04:54;100469.72;;;9.09;100.00
22605;BME280;11469;49.024;8.246;2023-04-16T00:07:20;100466.47;;;9.07;100.00
22605;BME280;11469;49.024;8.246;2023-04-16T00:09:45;100465.66;;;9.07;100.00
22605;BME280;11469;49.024;8.246;2023-04-16T00:12:11;100469.72;;;9.09;100.00
22605;BME280;11469;49.024;8.246;2023-04-16T00:14:37;100470.53;;;9.10;100.00
22605;BME280;11469;49.024;8.246;2023-04-16T00:17:02;100483.34;;;9.11;100.00
22605;BME280;11469;49.024;8.246;2023-04-16T00:19:27;100484.19;;;9.11;100.00
22605;BME280;11469;49.024;8.246;2023-04-16T00:21:53;100479.75;;;9.10;100.00
22605;BME280;11469;49.024;8.246;2023-04-16T00:24:18;100480.09;;;9.09;100.00
22605;BME280;11469;49.024;8.246;2023-04-16T00:26:44;100476.47;;;9.08;100.00
22605;BME280;11469;49.024;8.246;2023-04-16T00:29:11;100480.09;;;9.09;100.00
22605;BME280;11469;49.024;8.246;2023-04-16T00:31:36;100479.75;;;9.10;100.00
22605;BME280;11469;49.024;8.246;2023-04-16T00:34:02;100483.34;;;9.11;100.00
22605;BME280;11469;49.024;8.246;2023-04-16T00:36:28;100476.59;;;9.12;100.00
22605;BME280;11469;49.024;8.246;2023-04-16T00:38:55;100478.22;;;9.13;100.00
22605;BME280;11469;49.024;8.246;2023-04-16T00:41:21;100484.63;;;9.13;100.00
22605;BME280;11469;49.024;8.246;2023-04-16T00:43:47;100478.94;;;9.10;100.00
22605;BME280;11469;49.024;8.246;2023-04-16T00:46:13;100478.34;;;9.04;100.00
22605;BME280;11469;49.024;8.246;2023-04-16T00:48:40;100479.97;;;9.05;100.00
22605;BME280;11469;49.024;8.246;2023-04-16T00:51:07;100487.19;;;9.06;100.00
22605;BME280;11469;49.024;8.246;2023-04-16T00:53:33;100479.84;;;9.02;100.00
22605;BME280;11469;49.024;8.246;2023-04-16T00:56:01;100483.81;;;9.01;100.00
22605;BME280;11469;49.024;8.246;2023-04-16T00:58:28;100488.59;;;9.00;100.00
22605;BME280;11469;49.024;8.246;2023-04-16T01:00:54;100485.91;;;9.04;100.00
22605;BME280;11469;49.024;8.246;2023-04-16T01:03:19;100487.91;;;9.03;100.00
22605;BME280;11469;49.024;8.246;2023-04-16T01:05:45;100486.63;;;9.01;100.00
22605;BME280;11469;49.024;8.246;2023-04-16T01:08:17;100483.00;;;9.00;100.00
22605;BME280;11469;49.024;8.246;2023-04-16T01:10:43;100487.09;;;9.03;100.00
22605;BME280;11469;49.024;8.246;2023-04-16T01:13:10;100484.28;;;9.03;100.00
22605;BME280;11469;49.024;8.246;2023-04-16T01:15:36;100483.13;;;9.04;100.00
22605;BME280;11469;49.024;8.246;2023-04-16T01:18:01;100490.34;;;9.05;100.00
22605;BME280;11469;49.024;8.246;2023-04-16T01:20:27;100495.94;;;9.05;100.00
22605;BME280;11469;49.024;8.246;2023-04-16T01:22:52;100496.75;;;9.05;100.00
22605;BME280;11469;49.024;8.246;2023-04-16T01:25:17;100501.88;;;9.03;100.00
22605;BME280;11469;49.024;8.246;2023-04-16T01:27:43;100497.78;;;9.01;100.00
22605;BME280;11469;49.024;8.246;2023-04-16T01:30:09;100495.00;;;9.01;100.00
22605;BME280;11469;49.024;8.246;2023-04-16T01:32:34;100496.97;;;9.00;100.00
22605;BME280;11469;49.024;8.246;2023-04-16T01:34:59;100506.19;;;9.01;100.00
22605;BME280;11469;49.024;8.246;2023-04-16T01:37:25;100494.53;;;8.98;100.00
22605;BME280;11469;49.024;8.246;2023-04-16T01:39:50;100500.59;;;9.01;100.00
22605;BME280;11469;49.024;8.246;2023-04-16T01:42:16;100498.59;;;9.01;100.00
22605;BME280;11469;49.024;8.246;2023-04-16T01:44:41;100496.16;;;8.99;100.00
22605;BME280;11469;49.024;8.246;2023-04-16T01:47:07;100502.91;;;8.98;100.00
22605;BME280;11469;49.024;8.246;2023-04-16T01:49:34;100495.00;;;9.01;100.00
22605;BME280;11469;49.024;8.246;2023-04-16T01:52:00;100506.19;;;9.01;100.00
22605;BME280;11469;49.024;8.246;2023-04-16T01:54:25;100495.81;;;9.01;100.00
22605;BME280;11469;49.024;8.246;2023-04-16T01:56:50;100502.22;;;9.02;100.00
22605;BME280;11469;49.024;8.246;2023-04-16T01:59:16;100495.00;;;9.01;100.00
22605;BME280;11469;49.024;8.246;2023-04-16T02:01:41;100500.59;;;9.01;100.00
22605;BME280;11469;49.024;8.246;2023-04-16T02:04:07;100499.78;;;9.00;100.00
22605;BME280;11469;49.024;8.246;2023-04-16T02:06:33;100506.53;;;8.99;100.00
22605;BME280;11469;49.024;8.246;2023-04-16T02:08:58;100500.13;;;8.98;100.00
22605;BME280;11469;49.024;8.246;2023-04-16T02:11:24;100508.88;;;8.97;100.00
22605;BME280;11469;49.024;8.246;2023-04-16T02:13:49;100507.25;;;8.96;100.00
22605;BME280;11469;49.024;8.246;2023-04-16T02:16:14;100506.44;;;8.95;100.00
22605;BME280;11469;49.024;8.246;2023-04-16T02:18:40;100502.91;;;8.98;100.00
22605;BME280;11469;49.024;8.246;2023-04-16T02:21:05;100508.50;;;8.98;100.00
22605;BME280;11469;49.024;8.246;2023-04-16T02:23:31;100512.50;;;8.97;100.00
22605;BME280;11469;49.024;8.246;2023-04-16T02:25:57;100506.91;;;8.97;100.00
22605;BME280;11469;49.024;8.246;2023-04-16T02:28:22;100514.00;;;8.95;100.00
22605;BME280;11469;49.024;8.246;2023-04-16T02:30:48;100511.56;;;8.93;100.00
22605;BME280;11469;49.024;8.246;2023-04-16T02:33:13;100517.84;;;8.90;100.00
22605;BME280;11469;49.024;8.246;2023-04-16T02:35:39;100514.59;;;8.88;100.00
22605;BME280;11469;49.024;8.246;2023-04-16T02:38:06;100523.66;;;8.85;100.00
22605;BME280;11469;49.024;8.246;2023-04-16T02:40:31;100517.25;;;8.85;100.00
22605;BME280;11469;49.024;8.246;2023-04-16T02:42:57;100510.03;;;8.84;100.00
22605;BME280;11469;49.024;8.246;2023-04-16T02:45:23;100518.06;;;8.85;100.00
22605;BME280;11469;49.024;8.246;2023-04-16T02:47:48;100521.56;;;8.82;100.00
22605;BME280;11469;49.024;8.246;2023-04-16T02:50:14;100523.66;;;8.85;100.00
22605;BME280;11469;49.024;8.246;2023-04-16T02:52:40;100522.03;;;8.84;100.00
22605;BME280;11469;49.024;8.246;2023-04-16T02:55:06;100525.28;;;8.86;100.00
22605;BME280;11469;49.024;8.246;2023-04-16T02:57:32;100520.41;;;8.83;100.00
22605;BME280;11469;49.024;8.246;2023-04-16T02:59:57;100523.31;;;8.87;100.00
22605;BME280;11469;49.024;8.246;2023-04-16T03:02:23;100522.97;;;8.88;100.00
22605;BME280;11469;49.024;8.246;2023-04-16T03:04:48;100522.84;;;8.85;100.00
22605;BME280;11469;49.024;8.246;2023-04-16T03:07:14;100515.97;;;8.82;100.00
22605;BME280;11469;49.024;8.246;2023-04-16T03:09:39;100527.97;;;8.83;100.00
22605;BME280;11469;49.024;8.246;2023-04-16T03:12:05;100522.38;;;8.83;100.00
22605;BME280;11469;49.024;8.246;2023-04-16T03:14:30;100527.63;;;8.84;100.00
22605;BME280;11469;49.024;8.246;2023-04-16T03:16:56;100529.25;;;8.85;100.00
22605;BME280;11469;49.024;8.246;2023-04-16T03:19:22;100531.00;;;8.90;100.00
22605;BME280;11469;49.024;8.246;2023-04-16T03:21:47;100522.03;;;8.84;100.00
22605;BME280;11469;49.024;8.246;2023-04-16T03:24:13;100527.97;;;8.83;100.00
22605;BME280;11469;49.024;8.246;2023-04-16T03:26:39;100525.16;;;8.83;100.00
22605;BME280;11469;49.024;8.246;2023-04-16T03:29:04;100526.34;;;8.82;100.00
22605;BME280;11469;49.024;8.246;2023-04-16T03:31:30;100526.34;;;8.82;100.00
22605;BME280;11469;49.024;8.246;2023-04-16T03:33:55;100523.53;;;8.82;100.00
22605;BME280;11469;49.024;8.246;2023-04-16T03:36:21;100531.22;;;8.85;100.00
22605;BME280;11469;49.024;8.246;2023-04-16T03:38:51;100532.03;;;8.85;100.00
22605;BME280;11469;49.024;8.246;2023-04-16T03:41:17;100534.38;;;8.83;100.00
22605;BME280;11469;49.024;8.246;2023-04-16T03:43:42;100535.66;;;8.86;100.00
22605;BME280;11469;49.024;8.246;2023-04-16T03:46:07;100543.59;;;8.96;100.00
22605;BME280;11469;49.024;8.246;2023-04-16T03:48:33;100541.84;;;8.91;100.00
22605;BME280;11469;49.024;8.246;2023-04-16T03:50:58;100543.47;;;8.92;100.00
22605;BME280;11469;49.024;8.246;2023-04-16T03:53:23;100553.03;;;8.91;100.00
22605;BME280;11469;49.024;8.246;2023-04-16T03:55:49;100550.09;;;8.88;100.00
22605;BME280;11469;49.024;8.246;2023-04-16T03:58:18;100548.13;;;8.88;100.00
22605;BME280;11469;49.024;8.246;2023-04-16T04:00:44;100550.78;;;8.85;100.00
22605;BME280;11469;49.024;8.246;2023-04-16T04:03:10;100540.78;;;8.84;100.00
22605;BME280;11469;49.024;8.246;2023-04-16T04:05:39;100544.38;;;8.84;100.00
22605;BME280;11469;49.024;8.246;2023-04-16T04:08:05;100541.72;;;8.88;100.00
22605;BME280;11469;49.024;8.246;2023-04-16T04:10:34;100546.16;;;8.89;100.00
22605;BME280;11469;49.024;8.246;2023-04-16T04:13:02;100549.28;;;8.87;100.00
22605;BME280;11469;49.024;8.246;2023-04-16T04:15:27;100558.84;;;8.86;100.00
22605;BME280;11469;49.024;8.246;2023-04-16T04:17:53;100560.13;;;8.89;100.00
22605;BME280;11469;49.024;8.246;2023-04-16T04:20:19;100555.34;;;8.89;100.00
22605;BME280;11469;49.024;8.246;2023-04-16T04:22:44;100556.63;;;8.92;100.00
22605;BME280;11469;49.024;8.246;2023-04-16T04:25:10;100560.59;;;8.91;100.00
22605;BME280;11469;49.024;8.246;2023-04-16T04:27:36;100563.84;;;8.93;100.00
22605;BME280;11469;49.024;8.246;2023-04-16T04:30:02;100566.66;;;8.93;100.00
22605;BME280;11469;49.024;8.246;2023-04-16T04:32:29;100561.41;;;8.91;100.00
22605;BME280;11469;49.024;8.246;2023-04-16T04:34:55;100571.66;;;8.87;100.00
22605;BME280;11469;49.024;8.246;2023-04-16T04:37:20;100569.19;;;8.86;100.00
22605;BME280;11469;49.024;8.246;2023-04-16T04:39:46;100571.88;;;8.82;100.00
22605;BME280;11469;49.024;8.246;2023-04-16T04:42:11;100577.31;;;8.79;100.00
22605;BME280;11469;49.024;8.246;2023-04-16T04:44:37;100578.16;;;8.79;100.00
22605;BME280;11469;49.024;8.246;2023-04-16T04:47:02;100584.22;;;8.81;100.00
22605;BME280;11469;49.024;8.246;2023-04-16T04:49:27;100579.91;;;8.84;100.00
22605;BME280;11469;49.024;8.246;2023-04-16T04:51:53;100580.59;;;8.81;100.00
22605;BME280;11469;49.024;8.246;2023-04-16T04:54:18;100590.97;;;8.80;100.00
22605;BME280;11469;49.024;8.246;2023-04-16T04:56:44;100592.81;;;8.76;100.00
22605;BME280;11469;49.024;8.246;2023-04-16T04:59:10;100588.84;;;8.77;100.00
22605;BME280;11469;49.024;8.246;2023-04-16T05:01:36;100584.22;;;8.81;100.00
22605;BME280;11469;49.024;8.246;2023-04-16T05:04:02;100589.66;;;8.78;100.00
22605;BME280;11469;49.024;8.246;2023-04-16T05:06:27;100584.41;;;8.76;100.00
22605;BME280;11469;49.024;8.246;2023-04-16T05:08:52;100598.53;;;8.80;100.00
22605;BME280;11469;49.024;8.246;2023-04-16T05:11:18;100600.28;;;8.84;100.00
22605;BME280;11469;49.024;8.246;2023-04-16T05:13:43;100610.53;;;8.80;100.00
22605;BME280;11469;49.024;8.246;2023-04-16T05:16:10;100606.69;;;8.85;100.00
22605;BME280;11469;49.024;8.246;2023-04-16T05:18:35;100612.63;;;8.83;100.00
22605;BME280;11469;49.024;8.246;2023-04-16T05:21:00;100612.75;;;8.87;100.00
22605;BME280;11469;49.024;8.246;2023-04-16T05:23:26;100619.16;;;8.87;100.00
22605;BME280;11469;49.024;8.246;2023-04-16T05:25:51;100617.75;;;8.81;100.00
22605;BME280;11469;49.024;8.246;2023-04-16T05:28:17;100625.31;;;8.81;100.00
22605;BME280;11469;49.024;8.246;2023-04-16T05:30:42;100623.00;;;8.83;100.00
22605;BME280;11469;49.024;8.246;2023-04-16T05:33:10;100636.63;;;8.84;100.00
22605;BME280;11469;49.024;8.246;2023-04-16T05:35:35;100627.53;;;8.87;100.00
22605;BME280;11469;49.024;8.246;2023-04-16T05:38:01;100634.97;;;8.83;100.00
22605;BME280;11469;49.024;8.246;2023-04-16T05:40:26;100626.13;;;8.81;100.00
22605;BME280;11469;49.024;8.246;2023-04-16T05:42:51;100621.34;;;8.82;100.00
22605;BME280;11469;49.024;8.246;2023-04-16T05:45:17;100633.34;;;8.82;100.00
22605;BME280;11469;49.024;8.246;2023-04-16T05:47:42;100638.47;;;8.80;100.00
22605;BME280;11469;49.024;8.246;2023-04-16T05:50:08;100638.94;;;8.82;100.00
22605;BME280;11469;49.024;8.246;2023-04-16T05:52:34;100639.28;;;8.81;100.00
22605;BME280;11469;49.024;8.246;2023-04-16T05:54:59;100648.63;;;8.85;100.00
22605;BME280;11469;49.024;8.246;2023-04-16T05:57:27;100648.16;;;8.83;100.00
22605;BME280;11469;49.024;8.246;2023-04-16T05:59:52;100644.66;;;8.86;100.00
22605;BME280;11469;49.024;8.246;2023-04-16T06:02:18;100640.38;;;8.88;100.00
22605;BME280;11469;49.024;8.246;2023-04-16T06:04:44;100648.41;;;8.90;100.00
22605;BME280;11469;49.024;8.246;2023-04-16T06:07:09;100645.59;;;8.90;100.00
22605;BME280;11469;49.024;8.246;2023-04-16T06:09:34;100653.66;;;8.91;100.00
22605;BME280;11469;49.024;8.246;2023-04-16T06:12:00;100651.81;;;8.95;100.00
22605;BME280;11469;49.024;8.246;2023-04-16T06:14:26;100655.66;;;9.03;100.00
22605;BME280;11469;49.024;8.246;2023-04-16T06:16:51;100657.06;;;9.09;100.00
22605;BME280;11469;49.024;8.246;2023-04-16T06:19:16;100660.09;;;9.16;100.00
22605;BME280;11469;49.024;8.246;2023-04-16T06:21:42;100661.19;;;9.24;100.00
22605;BME280;11469;49.024;8.246;2023-04-16T06:24:07;100660.75;;;9.34;100.00
22605;BME280;11469;49.024;8.246;2023-04-16T06:26:33;100667.16;;;9.35;100.00
22605;BME280;11469;49.024;8.246;2023-04-16T06:28:58;100668.09;;;9.39;100.00
22605;BME280;11469;49.024;8.246;2023-04-16T06:31:23;100674.97;;;9.41;100.00
22605;BME280;11469;49.024;8.246;2023-04-16T06:33:49;100675.44;;;9.43;100.00
22605;BME280;11469;49.024;8.246;2023-04-16T06:36:14;100679.88;;;9.44;100.00
22605;BME280;11469;49.024;8.246;2023-04-16T06:38:41;100677.97;;;9.48;100.00
22605;BME280;11469;49.024;8.246;2023-04-16T06:41:06;100678.81;;;9.37;100.00
22605;BME280;11469;49.024;8.246;2023-04-16T06:43:32;100676.00;;;9.37;100.00
22605;BME280;11469;49.024;8.246;2023-04-16T06:45:58;100682.53;;;9.41;100.00
22605;BME280;11469;49.024;8.246;2023-04-16T06:48:24;100676.94;;;9.41;100.00
22605;BME280;11469;49.024;8.246;2023-04-16T06:50:49;100681.59;;;9.37;100.00
22605;BME280;11469;49.024;8.246;2023-04-16T06:53:15;100683.38;;;9.41;100.00
22605;BME280;11469;49.024;8.246;2023-04-16T06:55:40;100671.56;;;9.48;100.00
22605;BME280;11469;49.024;8.246;2023-04-16T06:58:06;100673.69;;;9.51;100.00
22605;BME280;11469;49.024;8.246;2023-04-16T07:00:31;100675.44;;;9.55;100.00
22605;BME280;11469;49.024;8.246;2023-04-16T07:02:56;100679.66;;;9.74;100.00
22605;BME280;11469;49.024;8.246;2023-04-16T07:05:22;100685.13;;;9.70;100.00
22605;BME280;11469;49.024;8.246;2023-04-16T07:07:47;100689.69;;;9.75;100.00
22605;BME280;11469;49.024;8.246;2023-04-16T07:10:12;100678.38;;;9.71;100.00
22605;BME280;11469;49.024;8.246;2023-04-16T07:12:38;100678.59;;;9.78;100.00
22605;BME280;11469;49.024;8.246;2023-04-16T07:15:04;100685.50;;;9.81;100.00
22605;BME280;11469;49.024;8.246;2023-04-16T07:17:30;100689.44;;;9.80;100.00
22605;BME280;11469;49.024;8.246;2023-04-16T07:19:55;100687.47;;;9.80;100.00
22605;BME280;11469;49.024;8.246;2023-04-16T07:22:21;100694.22;;;9.79;100.00
22605;BME280;11469;49.024;8.246;2023-04-16T07:24:46;100690.50;;;9.87;99.25
22605;BME280;11469;49.024;8.246;2023-04-16T07:27:11;100697.75;;;9.88;97.22
22605;BME280;11469;49.024;8.246;2023-04-16T07:29:37;100701.00;;;9.90;97.71
22605;BME280;11469;49.024;8.246;2023-04-16T07:32:02;100699.59;;;9.84;97.85
22605;BME280;11469;49.024;8.246;2023-04-16T07:34:28;100698.66;;;9.92;98.02
22605;BME280;11469;49.024;8.246;2023-04-16T07:36:53;100700.28;;;9.93;97.25
22605;BME280;11469;49.024;8.246;2023-04-16T07:39:18;100702.88;;;9.86;98.18
22605;BME280;11469;49.024;8.246;2023-04-16T07:41:44;100710.00;;;9.84;98.00
22605;BME280;11469;49.024;8.246;2023-04-16T07:44:09;100701.72;;;9.87;99.03
22605;BME280;11469;49.024;8.246;2023-04-16T07:46:35;100714.53;;;9.88;98.55
22605;BME280;11469;49.024;8.246;2023-04-16T07:49:00;100711.13;;;9.95;96.37
22605;BME280;11469;49.024;8.246;2023-04-16T07:51:26;100707.97;;;9.96;96.27
22605;BME280;11469;49.024;8.246;2023-04-16T07:53:51;100710.91;;;10.00;95.70
22605;BME280;11469;49.024;8.246;2023-04-16T07:56:17;100723.38;;;10.03;96.78
22605;BME280;11469;49.024;8.246;2023-04-16T07:58:42;100715.81;;;10.03;96.21
22605;BME280;11469;49.024;8.246;2023-04-16T08:01:07;100720.34;;;10.08;95.76
22605;BME280;11469;49.024;8.246;2023-04-16T08:03:33;100724.91;;;10.12;96.19
22605;BME280;11469;49.024;8.246;2023-04-16T08:05:58;100731.91;;;10.18;95.55
22605;BME280;11469;49.024;8.246;2023-04-16T08:08:23;100729.25;;;10.22;94.10
22605;BME280;11469;49.024;8.246;2023-04-16T08:10:49;100730.28;;;10.29;94.74
22605;BME280;11469;49.024;8.246;2023-04-16T08:13:20;100722.66;;;10.42;93.86
22605;BME280;11469;49.024;8.246;2023-04-16T08:15:45;100727.72;;;10.37;91.08
22605;BME280;11469;49.024;8.246;2023-04-16T08:18:10;100728.88;;;10.36;91.13
22605;BME280;11469;49.024;8.246;2023-04-16T08:20:40;100725.28;;;10.35;91.48
22605;BME280;11469;49.024;8.246;2023-04-16T08:23:05;100725.13;;;10.44;91.89
22605;BME280;11469;49.024;8.246;2023-04-16T08:25:30;100741.56;;;10.57;92.63
22605;BME280;11469;49.024;8.246;2023-04-16T08:27:56;100736.03;;;10.73;92.47
22605;BME280;11469;49.024;8.246;2023-04-16T08:30:21;100738.81;;;10.85;90.88
22605;BME280;11469;49.024;8.246;2023-04-16T08:32:47;100743.06;;;10.95;89.13
22605;BME280;11469;49.024;8.246;2023-04-16T08:35:12;100747.25;;;11.01;89.94
22605;BME280;11469;49.024;8.246;2023-04-16T08:37:38;100751.44;;;11.07;88.25
22605;BME280;11469;49.024;8.246;2023-04-16T08:40:03;100756.09;;;11.15;88.99
22605;BME280;11469;49.024;8.246;2023-04-16T08:42:38;100760.81;;;10.99;87.28
22605;BME280;11469;49.024;8.246;2023-04-16T08:45:16;100764.31;;;11.08;86.72
22605;BME280;11469;49.024;8.246;2023-04-16T08:47:46;100768.38;;;11.11;86.68
22605;BME280;11469;49.024;8.246;2023-04-16T08:50:17;100770.41;;;10.98;86.36
22605;BME280;11469;49.024;8.246;2023-04-16T08:52:57;100766.06;;;11.01;86.52
22605;BME280;11469;49.024;8.246;2023-04-16T08:55:37;100773.22;;;10.98;86.47
22605;BME280;11469;49.024;8.246;2023-04-16T08:58:22;100779.53;;;10.95;86.83
22605;BME280;11469;49.024;8.246;2023-04-16T09:00:48;100774.75;;;10.95;87.35
22605;BME280;11469;49.024;8.246;2023-04-16T09:03:14;100772.91;;;10.87;87.86
22605;BME280;11469;49.024;8.246;2023-04-16T09:05:40;100777.13;;;10.81;87.29
22605;BME280;11469;49.024;8.246;2023-04-16T09:08:07;100777.13;;;10.81;87.13
22605;BME280;11469;49.024;8.246;2023-04-16T09:10:33;100770.72;;;10.81;86.35
22605;BME280;11469;49.024;8.246;2023-04-16T09:12:58;100784.09;;;10.87;87.11
22605;BME280;11469;49.024;8.246;2023-04-16T09:15:25;100776.91;;;10.86;87.31
22605;BME280;11469;49.024;8.246;2023-04-16T09:17:51;100775.69;;;10.87;88.08
22605;BME280;11469;49.024;8.246;2023-04-16T09:20:17;100776.16;;;10.89;88.50
22605;BME280;11469;49.024;8.246;2023-04-16T09:22:43;100784.31;;;10.94;87.60
22605;BME280;11469;49.024;8.246;2023-04-16T09:25:09;100780.25;;;10.92;87.22
22605;BME280;11469;49.024;8.246;2023-04-16T09:27:36;100779.41;;;10.91;86.80
22605;BME280;11469;49.024;8.246;2023-04-16T09:30:18;100785.50;;;10.93;87.42
22605;BME280;11469;49.024;8.246;2023-04-16T09:32:46;100779.69;;;10.86;86.73
22605;BME280;11469;49.024;8.246;2023-04-16T09:35:11;100789.47;;;10.92;86.81
22605;BME280;11469;49.024;8.246;2023-04-16T09:37:37;100788.66;;;10.92;86.91
22605;BME280;11469;49.024;8.246;2023-04-16T09:40:03;100791.28;;;10.85;85.88
22605;BME280;11469;49.024;8.246;2023-04-16T09:42:30;100789.00;;;10.90;86.24
22605;BME280;11469;49.024;8.246;2023-04-16T09:44:57;100791.34;;;10.88;85.95
22605;BME280;11469;49.024;8.246;2023-04-16T09:47:25;100793.72;;;10.86;86.95
22605;BME280;11469;49.024;8.246;2023-04-16T09:49:51;100794.06;;;10.85;87.04
22605;BME280;11469;49.024;8.246;2023-04-16T09:52:21;100802.03;;;10.83;87.93
22605;BME280;11469;49.024;8.246;2023-04-16T09:54:53;100796.53;;;10.74;88.39
22605;BME280;11469;49.024;8.246;2023-04-16T09:57:23;100804.94;;;10.86;87.74
22605;BME280;11469;49.024;8.246;2023-04-16T09:59:55;100795.84;;;10.77;87.39
22605;BME280;11469;49.024;8.246;2023-04-16T10:02:29;100806.19;;;10.89;87.45
22605;BME280;11469;49.024;8.246;2023-04-16T10:04:55;100805.38;;;10.88;86.41
22605;BME280;11469;49.024;8.246;2023-04-16T10:07:22;100810.16;;;10.88;87.34
22605;BME280;11469;49.024;8.246;2023-04-16T10:09:52;100803.50;;;10.92;87.17
22605;BME280;11469;49.024;8.246;2023-04-16T10:12:18;100810.59;;;11.02;88.14
22605;BME280;11469;49.024;8.246;2023-04-16T10:14:43;100817.25;;;11.10;87.08
22605;BME280;11469;49.024;8.246;2023-04-16T10:17:09;100810.09;;;11.12;86.56
22605;BME280;11469;49.024;8.246;2023-04-16T10:19:35;100812.78;;;11.21;86.75
22605;BME280;11469;49.024;8.246;2023-04-16T10:22:04;100812.31;;;11.19;86.01
22605;BME280;11469;49.024;8.246;2023-04-16T10:24:31;100821.31;;;11.12;86.01
22605;BME280;11469;49.024;8.246;2023-04-16T10:26:57;100825.88;;;11.17;86.31
22605;BME280;11469;49.024;8.246;2023-04-16T10:29:22;100819.56;;;11.20;86.99
22605;BME280;11469;49.024;8.246;2023-04-16T10:31:50;100820.03;;;11.10;86.08
22605;BME280;11469;49.024;8.246;2023-04-16T10:34:16;100830.91;;;11.11;86.80
22605;BME280;11469;49.024;8.246;2023-04-16T10:36:47;100831.38;;;11.13;86.17
22605;BME280;11469;49.024;8.246;2023-04-16T10:39:17;100828.31;;;11.18;86.56
22605;BME280;11469;49.024;8.246;2023-04-16T10:41:44;100824.69;;;11.18;86.29
22605;BME280;11469;49.024;8.246;2023-04-16T10:44:09;100827.50;;;11.18;86.30
22605;BME280;11469;49.024;8.246;2023-04-16T10:46:42;100834.66;;;11.15;86.31
22605;BME280;11469;49.024;8.246;2023-04-16T10:49:17;100837.22;;;11.20;85.13
22605;BME280;11469;49.024;8.246;2023-04-16T10:52:00;100831.72;;;11.12;85.79
22605;BME280;11469;49.024;8.246;2023-04-16T10:54:29;100831.97;;;11.07;87.21
22605;BME280;11469;49.024;8.246;2023-04-16T10:56:58;100836.41;;;11.08;86.48
22605;BME280;11469;49.024;8.246;2023-04-16T10:59:30;100829.88;;;11.04;87.69
22605;BME280;11469;49.024;8.246;2023-04-16T11:01:58;100832.56;;;11.12;86.78
22605;BME280;11469;49.024;8.246;2023-04-16T11:12:26;100834.44;;;10.96;91.81
22605;BME280;11469;49.024;8.246;2023-04-16T11:17:37;100834.84;;;10.82;93.99
22605;BME280;11469;49.024;8.246;2023-04-16T11:20:25;100837.78;;;10.86;94.19
22605;BME280;11469;49.024;8.246;2023-04-16T11:22:53;100843.25;;;10.82;95.58
22605;BME280;11469;49.024;8.246;2023-04-16T11:25:23;100838.59;;;10.74;96.99
22605;BME280;11469;49.024;8.246;2023-04-16T11:27:50;100841.88;;;10.64;98.45
22605;BME280;11469;49.024;8.246;2023-04-16T11:30:16;100838.84;;;10.69;99.24
22605;BME280;11469;49.024;8.246;2023-04-16T11:32:42;100844.19;;;10.74;100.00
22605;BME280;11469;49.024;8.246;2023-04-16T11:35:18;100843.63;;;10.69;100.00
22605;BME280;11469;49.024;8.246;2023-04-16T11:37:44;100841.06;;;10.63;100.00
22605;BME280;11469;49.024;8.246;2023-04-16T11:40:11;100853.19;;;10.68;100.00
22605;BME280;11469;49.024;8.246;2023-04-16T11:42:38;100844.09;;;10.71;100.00
22605;BME280;11469;49.024;8.246;2023-04-16T11:45:08;100851.69;;;10.70;100.00
22605;BME280;11469;49.024;8.246;2023-04-16T11:47:44;100851.22;;;10.68;100.00
22605;BME280;11469;49.024;8.246;2023-04-16T11:50:20;100848.06;;;10.70;100.00
22605;BME280;11469;49.024;8.246;2023-04-16T11:52:47;100844.31;;;10.66;100.00
22605;BME280;11469;49.024;8.246;2023-04-16T11:55:13;100846.19;;;10.74;100.00
22605;BME280;11469;49.024;8.246;2023-04-16T11:57:39;100854.25;;;10.75;100.00
22605;BME280;11469;49.024;8.246;2023-04-16T12:00:05;100848.19;;;10.73;100.00
22605;BME280;11469;49.024;8.246;2023-04-16T12:02:35;100848.19;;;10.73;100.00
22605;BME280;11469;49.024;8.246;2023-04-16T12:05:02;100853.44;;;10.75;100.00
22605;BME280;11469;49.024;8.246;2023-04-16T12:07:28;100850.28;;;10.64;100.00
22605;BME280;11469;49.024;8.246;2023-04-16T12:10:05;100849.94;;;10.66;100.00
22605;BME280;11469;49.024;8.246;2023-04-16T12:12:31;100852.84;;;10.57;100.00
22605;BME280;11469;49.024;8.246;2023-04-16T12:14:57;100850.16;;;10.48;100.00
22605;BME280;11469;49.024;8.246;2023-04-16T12:17:32;100845.50;;;10.52;100.00
22605;BME280;11469;49.024;8.246;2023-04-16T12:20:00;100844.78;;;10.55;100.00
22605;BME280;11469;49.024;8.246;2023-04-16T12:24:55;100848.88;;;10.58;100.00
22605;BME280;11469;49.024;8.246;2023-04-16T12:27:22;100857.53;;;10.65;100.00
22605;BME280;11469;49.024;8.246;2023-04-16T12:30:04;100850.97;;;10.61;100.00
22605;BME280;11469;49.024;8.246;2023-04-16T12:32:31;100851.81;;;10.61;100.00
22605;BME280;11469;49.024;8.246;2023-04-16T12:34:57;100855.19;;;10.67;100.00
22605;BME280;11469;49.024;8.246;2023-04-16T12:37:22;100854.59;;;10.61;100.00
22605;BME280;11469;49.024;8.246;2023-04-16T12:39:48;100855.44;;;10.62;100.00
22605;BME280;11469;49.024;8.246;2023-04-16T12:42:13;100856.47;;;10.70;100.00
22605;BME280;11469;49.024;8.246;2023-04-16T12:44:39;100861.25;;;10.69;100.00
22605;BME280;11469;49.024;8.246;2023-04-16T12:47:04;100856.81;;;10.68;100.00
22605;BME280;11469;49.024;8.246;2023-04-16T12:49:30;100850.50;;;10.71;100.00
22605;BME280;11469;49.024;8.246;2023-04-16T12:51:55;100851.22;;;10.68;100.00
22605;BME280;11469;49.024;8.246;2023-04-16T12:54:20;100862.91;;;10.70;100.00
22605;BME280;11469;49.024;8.246;2023-04-16T12:56:46;100851.56;;;10.67;100.00
22605;BME280;11469;49.024;8.246;2023-04-16T12:59:12;100860.91;;;10.58;100.00